createdAt,value
2022-10-16T00:00:21.645Z,999.68
2022-10-16T00:01:21.622Z,999.62
2022-10-16T00:02:21.678Z,999.57
2022-10-16T00:03:24.301Z,999.54
2022-10-16T00:04:22.634Z,999.55
2022-10-16T00:05:21.634Z,999.55
2022-10-16T00:06:21.600Z,999.60
2022-10-16T00:07:22.741Z,999.53
2022-10-16T00:08:21.544Z,999.59
2022-10-16T00:09:22.534Z,999.54
2022-10-16T00:10:21.522Z,999.57
2022-10-16T00:11:21.509Z,999.55
2022-10-16T00:12:21.559Z,999.59
2022-10-16T00:13:21.498Z,999.58
2022-10-16T00:14:21.530Z,999.55
2022-10-16T00:15:24.040Z,999.56
2022-10-16T00:16:21.462Z,999.55
2022-10-16T00:17:21.503Z,999.58
2022-10-16T00:18:24.018Z,999.64
2022-10-16T00:19:21.487Z,999.60
2022-10-16T00:20:21.415Z,999.71
2022-10-16T00:21:21.998Z,999.71
2022-10-16T00:22:21.396Z,999.69
2022-10-16T00:23:21.396Z,999.74
2022-10-16T00:24:29.022Z,999.70
2022-10-16T00:25:21.356Z,999.73
2022-10-16T00:26:21.405Z,999.75
2022-10-16T00:27:23.026Z,999.83
2022-10-16T00:28:21.359Z,999.79
2022-10-16T00:29:21.378Z,999.78
2022-10-16T00:30:21.387Z,999.80
2022-10-16T00:31:21.323Z,999.82
2022-10-16T00:32:21.341Z,999.75
2022-10-16T00:33:21.269Z,999.80
2022-10-16T00:34:21.260Z,999.82
2022-10-16T00:35:21.273Z,999.79
2022-10-16T00:36:21.324Z,999.77
2022-10-16T00:37:21.231Z,999.80
2022-10-16T00:38:21.211Z,999.82
2022-10-16T00:39:21.230Z,999.84
2022-10-16T00:40:21.246Z,999.86
2022-10-16T00:41:21.224Z,999.88
2022-10-16T00:42:21.184Z,999.91
2022-10-16T00:43:21.212Z,999.91
2022-10-16T00:44:21.145Z,999.97
2022-10-16T00:45:21.154Z,999.89
2022-10-16T00:46:21.146Z,999.92
2022-10-16T00:47:21.120Z,999.89
2022-10-16T00:48:21.116Z,999.86
2022-10-16T00:49:21.205Z,999.86
2022-10-16T00:50:21.080Z,999.90
2022-10-16T00:51:21.087Z,999.90
2022-10-16T00:52:21.081Z,999.90
2022-10-16T00:53:21.048Z,1000.01
2022-10-16T00:54:21.113Z,1000.03
2022-10-16T00:55:21.041Z,999.98
2022-10-16T00:56:21.014Z,1000.00
2022-10-16T00:57:21.081Z,999.96
2022-10-16T00:58:21.029Z,999.95
2022-10-16T00:59:20.991Z,999.90
2022-10-16T01:00:20.974Z,999.94
2022-10-16T01:01:21.000Z,999.86
2022-10-16T01:02:20.948Z,999.86
2022-10-16T01:03:23.503Z,999.86
2022-10-16T01:04:21.946Z,999.85
2022-10-16T01:05:21.477Z,999.83
2022-10-16T01:06:21.001Z,999.83
2022-10-16T01:07:20.891Z,999.85
2022-10-16T01:08:20.912Z,999.87
2022-10-16T01:09:20.953Z,999.87
2022-10-16T01:10:20.862Z,999.82
2022-10-16T01:11:20.893Z,999.84
2022-10-16T01:12:20.883Z,999.80
2022-10-16T01:13:20.827Z,999.83
2022-10-16T01:14:21.040Z,999.82
2022-10-16T01:15:20.804Z,999.82
2022-10-16T01:16:20.800Z,999.93
2022-10-16T01:17:20.812Z,999.85
2022-10-16T01:18:20.775Z,999.89
2022-10-16T01:19:20.778Z,999.87
2022-10-16T01:20:20.895Z,999.98
2022-10-16T01:21:20.737Z,999.89
2022-10-16T01:22:20.738Z,999.99
2022-10-16T01:23:20.779Z,999.92
2022-10-16T01:24:20.704Z,999.87
2022-10-16T01:25:20.695Z,999.95
2022-10-16T01:26:20.713Z,999.94
2022-10-16T01:27:20.693Z,999.98
2022-10-16T01:28:20.753Z,999.92
2022-10-16T01:29:20.741Z,999.86
2022-10-16T01:30:20.640Z,999.91
2022-10-16T01:31:20.638Z,999.97
2022-10-16T01:32:20.668Z,999.91
2022-10-16T01:33:20.614Z,999.98
2022-10-16T01:34:21.041Z,999.93
2022-10-16T01:35:20.584Z,999.95
2022-10-16T01:36:20.587Z,999.96
2022-10-16T01:37:20.575Z,1000.02
2022-10-16T01:38:21.475Z,1000.09
2022-10-16T01:39:20.598Z,1000.09
2022-10-16T01:40:20.551Z,1000.09
2022-10-16T01:41:25.509Z,1000.11
2022-10-16T01:42:20.505Z,1000.11
2022-10-16T01:43:20.613Z,1000.10
2022-10-16T01:44:20.488Z,1000.10
2022-10-16T01:45:20.521Z,1000.10
2022-10-16T01:46:20.524Z,1000.12
2022-10-16T01:47:20.494Z,1000.11
2022-10-16T01:48:20.440Z,1000.11
2022-10-16T01:49:20.441Z,1000.08
2022-10-16T01:50:20.419Z,1000.07
2022-10-16T01:51:20.434Z,1000.09
2022-10-16T01:52:20.462Z,1000.11
2022-10-16T01:53:20.392Z,1000.18
2022-10-16T01:54:20.374Z,1000.20
2022-10-16T01:55:20.380Z,1000.15
2022-10-16T01:56:20.397Z,1000.24
2022-10-16T01:57:20.359Z,1000.19
2022-10-16T01:58:20.375Z,1000.26
2022-10-16T01:59:20.335Z,1000.27
2022-10-16T02:00:20.311Z,1000.26
2022-10-16T02:01:20.304Z,1000.26
2022-10-16T02:02:20.347Z,1000.30
2022-10-16T02:03:20.294Z,1000.17
2022-10-16T02:04:20.264Z,1000.15
2022-10-16T02:05:20.254Z,1000.10
2022-10-16T02:06:20.301Z,1000.12
2022-10-16T02:07:20.229Z,1000.04
2022-10-16T02:08:20.287Z,1000.14
2022-10-16T02:09:20.359Z,1000.05
2022-10-16T02:10:20.255Z,1000.01
2022-10-16T02:11:20.185Z,1000.07
2022-10-16T02:12:20.181Z,1000.08
2022-10-16T02:13:20.174Z,1000.08
2022-10-16T02:14:20.166Z,1000.07
2022-10-16T02:15:20.216Z,1000.10
2022-10-16T02:16:20.140Z,1000.05
2022-10-16T02:17:20.123Z,1000.04
2022-10-16T02:18:20.116Z,999.95
2022-10-16T02:19:20.156Z,999.95
2022-10-16T02:20:20.115Z,999.92
2022-10-16T02:21:20.075Z,1000.04
2022-10-16T02:22:20.111Z,1000.08
2022-10-16T02:23:20.066Z,1000.14
2022-10-16T02:24:20.055Z,1000.25
2022-10-16T02:25:20.089Z,1000.25
2022-10-16T02:26:20.023Z,1000.24
2022-10-16T02:27:20.014Z,1000.21
2022-10-16T02:28:20.098Z,1000.22
2022-10-16T02:29:20.008Z,1000.20
2022-10-16T02:30:19.982Z,1000.24
2022-10-16T02:31:20.045Z,1000.22
2022-10-16T02:32:19.964Z,1000.28
2022-10-16T02:33:19.943Z,1000.32
2022-10-16T02:34:19.940Z,1000.41
2022-10-16T02:35:19.929Z,1000.50
2022-10-16T02:36:19.941Z,1000.49
2022-10-16T02:37:19.945Z,1000.42
2022-10-16T02:38:19.902Z,1000.42
2022-10-16T02:39:19.881Z,1000.38
2022-10-16T02:40:22.877Z,1000.37
2022-10-16T02:41:19.920Z,1000.39
2022-10-16T02:42:19.861Z,1000.41
2022-10-16T02:43:19.841Z,1000.39
2022-10-16T02:44:19.833Z,1000.41
2022-10-16T02:45:19.850Z,1000.41
2022-10-16T02:46:19.849Z,1000.39
2022-10-16T02:47:19.835Z,1000.37
2022-10-16T02:48:19.790Z,1000.38
2022-10-16T02:49:19.798Z,1000.36
2022-10-16T02:50:19.809Z,1000.37
2022-10-16T02:51:19.800Z,1000.31
2022-10-16T02:52:19.738Z,1000.31
2022-10-16T02:53:19.730Z,1000.31
2022-10-16T02:54:19.749Z,1000.29
2022-10-16T02:55:19.710Z,1000.34
2022-10-16T02:57:19.729Z,1000.33
2022-10-16T02:58:19.668Z,1000.33
2022-10-16T02:59:19.662Z,1000.35
2022-10-16T03:00:19.690Z,1000.30
2022-10-16T03:01:19.713Z,1000.31
2022-10-16T03:02:19.624Z,1000.31
2022-10-16T03:03:19.629Z,1000.33
2022-10-16T03:04:19.612Z,1000.27
2022-10-16T03:05:19.691Z,1000.34
2022-10-16T03:06:19.616Z,1000.32
2022-10-16T03:07:19.636Z,1000.38
2022-10-16T03:08:19.629Z,1000.41
2022-10-16T03:09:22.441Z,1000.37
2022-10-16T03:10:19.550Z,1000.40
2022-10-16T03:11:19.523Z,1000.39
2022-10-16T03:12:19.515Z,1000.44
2022-10-16T03:13:19.531Z,1000.39
2022-10-16T03:14:19.607Z,1000.37
2022-10-16T03:15:19.486Z,1000.46
2022-10-16T03:16:19.492Z,1000.50
2022-10-16T03:17:19.461Z,1000.45
2022-10-16T03:18:19.449Z,1000.46
2022-10-16T03:19:19.460Z,1000.44
2022-10-16T03:20:19.476Z,1000.43
2022-10-16T03:21:19.421Z,1000.43
2022-10-16T03:22:19.450Z,1000.38
2022-10-16T03:23:19.445Z,1000.38
2022-10-16T03:24:19.411Z,1000.45
2022-10-16T03:25:19.411Z,1000.40
2022-10-16T03:26:19.358Z,1000.44
2022-10-16T03:27:19.364Z,1000.43
2022-10-16T03:28:19.442Z,1000.47
2022-10-16T03:29:19.375Z,1000.50
2022-10-16T03:30:19.344Z,1000.53
2022-10-16T03:31:19.304Z,1000.54
2022-10-16T03:32:19.294Z,1000.59
2022-10-16T03:33:19.288Z,1000.64
2022-10-16T03:34:19.268Z,1000.65
2022-10-16T03:35:19.350Z,1000.71
2022-10-16T03:36:19.287Z,1000.73
2022-10-16T03:37:19.239Z,1000.66
2022-10-16T03:38:19.225Z,1000.72
2022-10-16T03:39:19.227Z,1000.63
2022-10-16T03:40:19.219Z,1000.66
2022-10-16T03:41:19.256Z,1000.66
2022-10-16T03:42:19.200Z,1000.64
2022-10-16T03:43:19.194Z,1000.68
2022-10-16T03:44:19.166Z,1000.60
2022-10-16T03:45:19.157Z,1000.59
2022-10-16T03:46:19.138Z,1000.53
2022-10-16T03:47:19.189Z,1000.51
2022-10-16T03:48:19.161Z,1000.50
2022-10-16T03:49:19.126Z,1000.53
2022-10-16T03:50:19.106Z,1000.43
2022-10-16T03:51:19.146Z,1000.42
2022-10-16T03:53:19.080Z,1000.38
2022-10-16T03:54:19.051Z,1000.42
2022-10-16T03:55:19.121Z,1000.44
2022-10-16T03:56:19.026Z,1000.43
2022-10-16T03:57:19.017Z,1000.41
2022-10-16T03:58:19.009Z,1000.39
2022-10-16T03:59:19.005Z,1000.36
2022-10-16T04:00:19.025Z,1000.33
2022-10-16T04:01:19.030Z,1000.34
2022-10-16T04:02:18.988Z,1000.31
2022-10-16T04:03:18.949Z,1000.43
2022-10-16T04:04:19.000Z,1000.46
2022-10-16T04:05:18.940Z,1000.49
2022-10-16T04:06:18.920Z,1000.50
2022-10-16T04:07:18.925Z,1000.46
2022-10-16T04:08:18.945Z,1000.48
2022-10-16T04:09:18.935Z,1000.51
2022-10-16T04:10:18.884Z,1000.46
2022-10-16T04:11:18.905Z,1000.43
2022-10-16T04:12:18.850Z,1000.47
2022-10-16T04:14:18.836Z,1000.50
2022-10-16T04:15:18.839Z,1000.57
2022-10-16T04:16:18.875Z,1000.47
2022-10-16T04:17:18.843Z,1000.50
2022-10-16T04:18:18.796Z,1000.45
2022-10-16T04:19:18.772Z,1000.41
2022-10-16T04:20:18.763Z,1000.43
2022-10-16T04:21:18.779Z,1000.35
2022-10-16T04:22:18.845Z,1000.42
2022-10-16T04:23:18.754Z,1000.49
2022-10-16T04:24:18.741Z,1000.60
2022-10-16T04:25:18.710Z,1000.67
2022-10-16T04:26:18.693Z,1000.63
2022-10-16T04:27:18.752Z,1000.60
2022-10-16T04:28:18.803Z,1000.62
2022-10-16T04:29:18.711Z,1000.57
2022-10-16T04:30:18.675Z,1000.65
2022-10-16T04:31:18.643Z,1000.74
2022-10-16T04:32:18.630Z,1000.79
2022-10-16T04:33:18.629Z,1000.81
2022-10-16T04:34:18.636Z,1000.84
2022-10-16T04:35:18.663Z,1000.86
2022-10-16T04:36:18.584Z,1000.83
2022-10-16T04:37:18.584Z,1000.83
2022-10-16T04:38:18.563Z,1000.83
2022-10-16T04:39:18.588Z,1000.85
2022-10-16T04:40:18.600Z,1000.78
2022-10-16T04:41:19.413Z,1000.81
2022-10-16T04:42:18.519Z,1000.81
2022-10-16T04:43:18.554Z,1000.86
2022-10-16T04:44:18.501Z,1000.92
2022-10-16T04:45:18.490Z,1000.93
2022-10-16T04:46:18.550Z,1000.96
2022-10-16T04:47:18.518Z,1000.94
2022-10-16T04:48:18.452Z,1000.96
2022-10-16T04:49:18.442Z,1000.92
2022-10-16T04:50:18.441Z,1000.93
2022-10-16T04:51:18.443Z,1000.95
2022-10-16T04:52:18.459Z,1000.97
2022-10-16T04:53:18.464Z,1000.95
2022-10-16T04:54:18.388Z,1000.94
2022-10-16T04:55:18.394Z,1000.94
2022-10-16T04:56:18.375Z,1000.98
2022-10-16T04:57:18.395Z,1001.02
2022-10-16T04:58:18.342Z,1001.10
2022-10-16T04:59:18.390Z,1001.09
2022-10-16T05:00:18.323Z,1001.09
2022-10-16T05:01:18.332Z,1001.08
2022-10-16T05:02:18.344Z,1001.06
2022-10-16T05:03:18.569Z,1001.07
2022-10-16T05:04:18.331Z,1001.09
2022-10-16T05:05:18.286Z,1001.15
2022-10-16T05:06:18.263Z,1001.21
2022-10-16T05:07:18.243Z,1001.22
2022-10-16T05:08:18.232Z,1001.23
2022-10-16T05:09:18.247Z,1001.22
2022-10-16T05:10:18.260Z,1001.20
2022-10-16T05:11:18.283Z,1001.25
2022-10-16T05:12:18.220Z,1001.20
2022-10-16T05:13:18.178Z,1001.24
2022-10-16T05:14:18.220Z,1001.17
2022-10-16T05:15:18.155Z,1001.14
2022-10-16T05:16:18.143Z,1001.17
2022-10-16T05:17:18.147Z,1001.14
2022-10-16T05:18:18.150Z,1001.17
2022-10-16T05:19:33.406Z,1001.21
2022-10-16T05:20:19.177Z,1001.22
2022-10-16T05:21:18.090Z,1001.17
2022-10-16T05:22:18.076Z,1001.19
2022-10-16T05:23:18.078Z,1001.18
2022-10-16T05:24:18.077Z,1001.27
2022-10-16T05:25:18.049Z,1001.21
2022-10-16T05:26:18.102Z,1001.23
2022-10-16T05:27:18.081Z,1001.25
2022-10-16T05:28:18.070Z,1001.27
2022-10-16T05:29:18.015Z,1001.31
2022-10-16T05:30:17.988Z,1001.29
2022-10-16T05:31:17.995Z,1001.36
2022-10-16T05:32:17.988Z,1001.31
2022-10-16T05:33:18.011Z,1001.33
2022-10-16T05:34:18.016Z,1001.32
2022-10-16T05:35:17.949Z,1001.31
2022-10-16T05:36:17.971Z,1001.29
2022-10-16T05:37:17.933Z,1001.34
2022-10-16T05:38:17.905Z,1001.32
2022-10-16T05:39:17.893Z,1001.30
2022-10-16T05:40:17.972Z,1001.30
2022-10-16T05:41:17.889Z,1001.31
2022-10-16T05:42:17.863Z,1001.28
2022-10-16T05:43:17.889Z,1001.23
2022-10-16T05:44:17.884Z,1001.30
2022-10-16T05:45:17.824Z,1001.34
2022-10-16T05:46:17.843Z,1001.33
2022-10-16T05:47:17.807Z,1001.30
2022-10-16T05:48:17.800Z,1001.33
2022-10-16T05:49:17.812Z,1001.32
2022-10-16T05:50:17.816Z,1001.34
2022-10-16T05:51:17.782Z,1001.34
2022-10-16T05:52:17.754Z,1001.38
2022-10-16T05:53:17.784Z,1001.40
2022-10-16T05:54:17.770Z,1001.39
2022-10-16T05:55:17.735Z,1001.47
2022-10-16T05:56:17.709Z,1001.51
2022-10-16T05:57:17.719Z,1001.48
2022-10-16T05:58:17.724Z,1001.46
2022-10-16T05:59:17.699Z,1001.52
2022-10-16T06:00:17.668Z,1001.51
2022-10-16T06:01:17.729Z,1001.52
2022-10-16T06:02:17.635Z,1001.58
2022-10-16T06:03:17.650Z,1001.54
2022-10-16T06:04:17.662Z,1001.55
2022-10-16T06:05:17.607Z,1001.55
2022-10-16T06:06:17.593Z,1001.59
2022-10-16T06:07:17.589Z,1001.60
2022-10-16T06:08:17.627Z,1001.60
2022-10-16T06:09:17.583Z,1001.60
2022-10-16T06:10:17.558Z,1001.64
2022-10-16T06:11:17.560Z,1001.64
2022-10-16T06:12:17.531Z,1001.65
2022-10-16T06:13:17.518Z,1001.70
2022-10-16T06:14:17.561Z,1001.67
2022-10-16T06:15:17.512Z,1001.68
2022-10-16T06:16:17.487Z,1001.62
2022-10-16T06:17:17.484Z,1001.62
2022-10-16T06:18:17.506Z,1001.60
2022-10-16T06:19:17.450Z,1001.62
2022-10-16T06:20:17.443Z,1001.64
2022-10-16T06:21:17.444Z,1001.68
2022-10-16T06:22:17.544Z,1001.70
2022-10-16T06:23:17.418Z,1001.68
2022-10-16T06:24:17.467Z,1001.68
2022-10-16T06:25:17.381Z,1001.65
2022-10-16T06:26:17.369Z,1001.68
2022-10-16T06:27:17.387Z,1001.72
2022-10-16T06:28:17.403Z,1001.76
2022-10-16T06:29:17.348Z,1001.77
2022-10-16T06:30:17.327Z,1001.71
2022-10-16T06:31:17.332Z,1001.71
2022-10-16T06:32:17.307Z,1001.78
2022-10-16T06:33:17.328Z,1001.80
2022-10-16T06:34:17.340Z,1001.82
2022-10-16T06:35:17.274Z,1001.81
2022-10-16T06:36:17.261Z,1001.80
2022-10-16T06:37:17.255Z,1001.82
2022-10-16T06:38:17.294Z,1001.88
2022-10-16T06:39:17.262Z,1001.87
2022-10-16T06:40:17.218Z,1001.90
2022-10-16T06:41:17.212Z,1001.99
2022-10-16T06:42:17.196Z,1001.93
2022-10-16T06:43:17.188Z,1001.96
2022-10-16T06:44:17.231Z,1001.95
2022-10-16T06:45:17.170Z,1001.97
2022-10-16T06:46:17.195Z,1001.95
2022-10-16T06:47:17.178Z,1001.92
2022-10-16T06:48:17.192Z,1002.00
2022-10-16T06:49:17.122Z,1002.00
2022-10-16T06:50:17.116Z,1002.02
2022-10-16T06:51:17.109Z,1001.99
2022-10-16T06:52:17.093Z,1002.01
2022-10-16T06:53:17.143Z,1002.00
2022-10-16T06:54:17.193Z,1002.04
2022-10-16T06:55:17.052Z,1001.99
2022-10-16T06:56:17.053Z,1002.00
2022-10-16T06:57:17.029Z,1002.03
2022-10-16T06:58:17.029Z,1002.08
2022-10-16T06:59:17.087Z,1002.07
2022-10-16T07:00:17.076Z,1002.04
2022-10-16T07:01:16.987Z,1002.08
2022-10-16T07:02:16.983Z,1002.08
2022-10-16T07:03:16.980Z,1002.11
2022-10-16T07:04:17.007Z,1002.08
2022-10-16T07:05:16.940Z,1002.09
2022-10-16T07:06:16.949Z,1002.06
2022-10-16T07:07:16.927Z,1002.06
2022-10-16T07:08:16.906Z,1002.03
2022-10-16T07:09:17.098Z,1002.06
2022-10-16T07:10:16.947Z,1001.99
2022-10-16T07:11:16.876Z,1001.99
2022-10-16T07:12:16.884Z,1001.96
2022-10-16T07:13:16.857Z,1001.95
2022-10-16T07:14:16.839Z,1001.93
2022-10-16T07:15:16.872Z,1001.75
2022-10-16T07:16:16.878Z,1001.63
2022-10-16T07:17:16.808Z,1001.51
2022-10-16T07:18:16.820Z,1001.50
2022-10-16T07:19:16.893Z,1001.53
2022-10-16T07:20:16.776Z,1001.55
2022-10-16T07:21:16.771Z,1001.67
2022-10-16T07:22:16.770Z,1001.79
2022-10-16T07:23:16.740Z,1001.86
2022-10-16T07:24:16.815Z,1001.94
2022-10-16T07:25:16.736Z,1001.99
2022-10-16T07:26:16.708Z,1002.10
2022-10-16T07:27:16.698Z,1002.11
2022-10-16T07:28:16.705Z,1002.15
2022-10-16T07:29:16.678Z,1002.20
2022-10-16T07:30:16.715Z,1002.28
2022-10-16T07:31:16.662Z,1002.29
2022-10-16T07:32:16.644Z,1002.32
2022-10-16T07:33:16.662Z,1002.30
2022-10-16T07:34:16.622Z,1002.34
2022-10-16T07:35:16.628Z,1002.39
2022-10-16T07:36:16.753Z,1002.43
2022-10-16T07:37:16.586Z,1002.43
2022-10-16T07:38:16.576Z,1002.35
2022-10-16T07:39:16.572Z,1002.34
2022-10-16T07:40:16.588Z,1002.35
2022-10-16T07:41:16.545Z,1002.33
2022-10-16T07:42:16.594Z,1002.37
2022-10-16T07:43:16.519Z,1002.40
2022-10-16T07:44:16.513Z,1002.32
2022-10-16T07:45:16.516Z,1002.31
2022-10-16T07:46:16.487Z,1002.32
2022-10-16T07:47:16.529Z,1002.30
2022-10-16T07:48:16.594Z,1002.37
2022-10-16T07:49:16.453Z,1002.42
2022-10-16T07:50:16.455Z,1002.44
2022-10-16T07:51:16.447Z,1002.46
2022-10-16T07:52:16.439Z,1002.54
2022-10-16T07:53:16.474Z,1002.48
2022-10-16T07:54:16.447Z,1002.46
2022-10-16T07:55:16.390Z,1002.44
2022-10-16T07:56:16.439Z,1002.50
2022-10-16T07:57:16.414Z,1002.49
2022-10-16T07:58:16.364Z,1002.56
2022-10-16T07:59:16.346Z,1002.58
2022-10-16T08:00:16.372Z,1002.56
2022-10-16T08:01:16.387Z,1002.59
2022-10-16T08:02:16.380Z,1002.64
2022-10-16T08:03:16.299Z,1002.64
2022-10-16T08:04:16.297Z,1002.73
2022-10-16T08:05:16.278Z,1002.63
2022-10-16T08:06:16.297Z,1002.68
2022-10-16T08:07:16.280Z,1002.66
2022-10-16T08:08:16.306Z,1002.71
2022-10-16T08:09:16.242Z,1002.65
2022-10-16T08:10:16.231Z,1002.62
2022-10-16T08:11:16.212Z,1002.63
2022-10-16T08:12:16.228Z,1002.63
2022-10-16T08:13:16.533Z,1002.64
2022-10-16T08:14:16.234Z,1002.75
2022-10-16T08:15:16.178Z,1002.74
2022-10-16T08:16:16.176Z,1002.76
2022-10-16T08:17:16.149Z,1002.77
2022-10-16T08:18:16.164Z,1002.80
2022-10-16T08:19:16.166Z,1002.74
2022-10-16T08:20:16.172Z,1002.86
2022-10-16T08:21:20.186Z,1002.88
2022-10-16T08:22:16.107Z,1002.87
2022-10-16T08:23:16.105Z,1002.92
2022-10-16T08:24:16.154Z,1002.90
2022-10-16T08:25:16.110Z,1002.95
2022-10-16T08:26:16.050Z,1002.91
2022-10-16T08:27:16.086Z,1002.97
2022-10-16T08:28:16.029Z,1002.95
2022-10-16T08:29:16.030Z,1002.96
2022-10-16T08:30:16.004Z,1003.00
2022-10-16T08:32:16.002Z,1002.95
2022-10-16T08:33:15.971Z,1002.90
2022-10-16T08:34:16.016Z,1002.85
2022-10-16T08:35:15.948Z,1002.87
2022-10-16T08:36:15.984Z,1002.85
2022-10-16T08:37:15.962Z,1002.88
2022-10-16T08:38:15.923Z,1002.85
2022-10-16T08:39:15.977Z,1002.95
2022-10-16T08:40:15.923Z,1002.98
2022-10-16T08:41:15.884Z,1002.93
2022-10-16T08:42:15.880Z,1003.01
2022-10-16T08:43:15.897Z,1003.03
2022-10-16T08:44:15.858Z,1003.08
2022-10-16T08:45:15.885Z,1003.02
2022-10-16T08:46:15.894Z,1003.10
2022-10-16T08:47:15.822Z,1003.09
2022-10-16T08:48:15.814Z,1003.16
2022-10-16T08:49:15.833Z,1003.14
2022-10-16T08:50:15.785Z,1003.10
2022-10-16T08:51:15.774Z,1003.11
2022-10-16T08:52:15.813Z,1003.06
2022-10-16T08:53:15.757Z,1003.16
2022-10-16T08:54:15.753Z,1003.16
2022-10-16T08:55:15.767Z,1003.15
2022-10-16T08:56:15.725Z,1003.16
2022-10-16T08:57:19.813Z,1003.21
2022-10-16T08:58:15.771Z,1003.19
2022-10-16T08:59:15.694Z,1003.19
2022-10-16T09:00:15.682Z,1003.24
2022-10-16T09:01:15.709Z,1003.25
2022-10-16T09:02:15.699Z,1003.30
2022-10-16T09:03:15.642Z,1003.37
2022-10-16T09:04:15.696Z,1003.34
2022-10-16T09:05:15.624Z,1003.39
2022-10-16T09:06:15.631Z,1003.32
2022-10-16T09:07:15.619Z,1003.35
2022-10-16T09:08:15.679Z,1003.43
2022-10-16T09:09:15.578Z,1003.39
2022-10-16T09:10:15.581Z,1003.40
2022-10-16T09:11:15.650Z,1003.39
2022-10-16T09:12:15.566Z,1003.44
2022-10-16T09:13:15.535Z,1003.48
2022-10-16T09:14:15.649Z,1003.43
2022-10-16T09:15:15.514Z,1003.41
2022-10-16T09:16:15.500Z,1003.45
2022-10-16T09:17:15.501Z,1003.38
2022-10-16T09:18:15.495Z,1003.39
2022-10-16T09:19:15.468Z,1003.39
2022-10-16T09:20:15.537Z,1003.42
2022-10-16T09:21:15.564Z,1003.41
2022-10-16T09:22:15.437Z,1003.44
2022-10-16T09:23:15.441Z,1003.50
2022-10-16T09:24:15.479Z,1003.47
2022-10-16T09:25:15.401Z,1003.37
2022-10-16T09:26:15.486Z,1003.40
2022-10-16T09:27:15.411Z,1003.38
2022-10-16T09:28:15.373Z,1003.37
2022-10-16T09:29:15.421Z,1003.40
2022-10-16T09:30:15.348Z,1003.42
2022-10-16T09:31:15.338Z,1003.47
2022-10-16T09:32:15.367Z,1003.50
2022-10-16T09:33:15.335Z,1003.55
2022-10-16T09:34:15.339Z,1003.49
2022-10-16T09:35:15.354Z,1003.50
2022-10-16T09:36:15.285Z,1003.56
2022-10-16T09:37:15.328Z,1003.52
2022-10-16T09:38:15.295Z,1003.49
2022-10-16T09:39:15.270Z,1003.57
2022-10-16T09:40:15.294Z,1003.51
2022-10-16T09:41:15.240Z,1003.52
2022-10-16T09:42:15.219Z,1003.59
2022-10-16T09:43:15.229Z,1003.53
2022-10-16T09:44:15.223Z,1003.53
2022-10-16T09:45:15.213Z,1003.53
2022-10-16T09:46:15.233Z,1003.61
2022-10-16T09:47:15.181Z,1003.57
2022-10-16T09:48:15.150Z,1003.61
2022-10-16T09:49:15.140Z,1003.66
2022-10-16T09:50:15.130Z,1003.64
2022-10-16T09:51:15.141Z,1003.59
2022-10-16T09:52:15.170Z,1003.60
2022-10-16T09:53:15.149Z,1003.57
2022-10-16T09:54:15.091Z,1003.61
2022-10-16T09:55:15.075Z,1003.62
2022-10-16T09:56:15.066Z,1003.69
2022-10-16T09:57:15.094Z,1003.66
2022-10-16T09:58:15.183Z,1003.75
2022-10-16T09:59:15.046Z,1003.72
2022-10-16T10:00:15.020Z,1003.75
2022-10-16T10:01:15.012Z,1003.76
2022-10-16T10:02:15.013Z,1003.75
2022-10-16T10:03:15.021Z,1003.74
2022-10-16T10:04:15.036Z,1003.75
2022-10-16T10:05:15.011Z,1003.68
2022-10-16T10:06:14.955Z,1003.64
2022-10-16T10:07:14.952Z,1003.61
2022-10-16T10:08:14.940Z,1003.63
2022-10-16T10:09:14.934Z,1003.57
2022-10-16T10:10:14.973Z,1003.67
2022-10-16T10:11:16.142Z,1003.80
2022-10-16T10:12:14.888Z,1003.79
2022-10-16T10:13:14.885Z,1003.83
2022-10-16T10:14:14.879Z,1003.85
2022-10-16T10:15:14.870Z,1003.89
2022-10-16T10:16:14.901Z,1003.85
2022-10-16T10:17:14.870Z,1003.87
2022-10-16T10:18:14.889Z,1003.93
2022-10-16T10:19:14.811Z,1003.95
2022-10-16T10:20:14.825Z,1003.89
2022-10-16T10:21:14.794Z,1003.88
2022-10-16T10:22:14.787Z,1003.93
2022-10-16T10:23:14.859Z,1003.98
2022-10-16T10:24:14.757Z,1003.95
2022-10-16T10:25:14.753Z,1003.97
2022-10-16T10:26:14.738Z,1003.96
2022-10-16T10:27:14.733Z,1003.97
2022-10-16T10:28:14.727Z,1004.00
2022-10-16T10:29:14.775Z,1003.96
2022-10-16T10:30:14.691Z,1003.89
2022-10-16T10:31:14.701Z,1003.91
2022-10-16T10:32:14.680Z,1003.93
2022-10-16T10:33:14.667Z,1003.87
2022-10-16T10:34:14.663Z,1003.87
2022-10-16T10:35:14.706Z,1003.91
2022-10-16T10:36:14.678Z,1004.03
2022-10-16T10:37:14.623Z,1003.97
2022-10-16T10:38:14.627Z,1003.97
2022-10-16T10:39:14.664Z,1003.87
2022-10-16T10:40:14.713Z,1003.90
2022-10-16T10:41:14.586Z,1003.83
2022-10-16T10:42:14.561Z,1003.85
2022-10-16T10:43:14.562Z,1003.89
2022-10-16T10:44:14.543Z,1003.96
2022-10-16T10:45:14.530Z,1003.95
2022-10-16T10:46:14.582Z,1003.96
2022-10-16T10:47:14.526Z,1003.96
2022-10-16T10:48:14.596Z,1003.96
2022-10-16T10:49:14.501Z,1003.95
2022-10-16T10:50:14.570Z,1003.98
2022-10-16T10:51:14.518Z,1004.01
2022-10-16T10:52:14.528Z,1003.97
2022-10-16T10:53:14.443Z,1004.00
2022-10-16T10:54:14.436Z,1004.01
2022-10-16T10:55:14.465Z,1004.03
2022-10-16T10:56:14.412Z,1004.06
2022-10-16T10:57:14.423Z,1004.04
2022-10-16T10:58:14.438Z,1004.01
2022-10-16T10:59:14.379Z,1004.08
2022-10-16T11:00:14.448Z,1004.07
2022-10-16T11:01:14.370Z,1004.03
2022-10-16T11:02:14.489Z,1004.05
2022-10-16T11:03:14.491Z,1004.07
2022-10-16T11:04:14.365Z,1004.02
2022-10-16T11:05:14.323Z,1003.98
2022-10-16T11:06:14.307Z,1003.94
2022-10-16T11:07:14.287Z,1003.97
2022-10-16T11:08:14.330Z,1003.97
2022-10-16T11:09:14.332Z,1003.99
2022-10-16T11:10:14.476Z,1003.99
2022-10-16T11:11:14.261Z,1004.01
2022-10-16T11:12:14.278Z,1003.97
2022-10-16T11:13:14.223Z,1004.05
2022-10-16T11:14:14.235Z,1004.01
2022-10-16T11:15:14.268Z,1004.01
2022-10-16T11:16:15.298Z,1004.11
2022-10-16T11:17:14.178Z,1004.05
2022-10-16T11:18:14.246Z,1004.00
2022-10-16T11:19:14.173Z,1004.03
2022-10-16T11:20:14.282Z,1003.99
2022-10-16T11:21:14.180Z,1003.95
2022-10-16T11:22:14.144Z,1004.01
2022-10-16T11:23:14.184Z,1004.06
2022-10-16T11:24:14.177Z,1004.06
2022-10-16T11:25:14.093Z,1004.04
2022-10-16T11:26:14.086Z,1004.06
2022-10-16T11:27:14.149Z,1003.95
2022-10-16T11:28:14.083Z,1004.01
2022-10-16T11:29:14.116Z,1003.96
2022-10-16T11:30:14.079Z,1003.96
2022-10-16T11:31:14.028Z,1004.01
2022-10-16T11:32:14.062Z,1004.05
2022-10-16T11:33:14.003Z,1004.03
2022-10-16T11:34:14.007Z,1004.04
2022-10-16T11:35:14.004Z,1004.09
2022-10-16T11:36:13.977Z,1004.06
2022-10-16T11:37:14.076Z,1004.06
2022-10-16T11:38:14.000Z,1004.11
2022-10-16T11:39:13.941Z,1004.06
2022-10-16T11:40:13.937Z,1004.09
2022-10-16T11:41:13.918Z,1004.10
2022-10-16T11:42:13.956Z,1004.14
2022-10-16T11:43:13.937Z,1004.11
2022-10-16T11:44:13.917Z,1004.15
2022-10-16T11:45:13.876Z,1004.12
2022-10-16T11:46:13.874Z,1004.16
2022-10-16T11:47:53.811Z,1004.14
2022-10-16T11:48:14.864Z,1004.18
2022-10-16T11:49:13.856Z,1004.26
2022-10-16T11:50:13.839Z,1004.32
2022-10-16T11:51:13.831Z,1004.22
2022-10-16T11:53:13.885Z,1004.14
2022-10-16T11:54:13.806Z,1004.15
2022-10-16T11:55:13.890Z,1004.22
2022-10-16T11:56:13.813Z,1004.16
2022-10-16T11:57:13.751Z,1004.21
2022-10-16T11:58:13.761Z,1004.19
2022-10-16T11:59:13.732Z,1004.20
2022-10-16T12:00:13.711Z,1004.19
2022-10-16T12:01:13.805Z,1004.23
2022-10-16T12:02:13.739Z,1004.22
2022-10-16T12:03:13.737Z,1004.22
2022-10-16T12:04:13.765Z,1004.25
2022-10-16T12:05:13.665Z,1004.30
2022-10-16T12:06:13.645Z,1004.23
2022-10-16T12:07:13.651Z,1004.19
2022-10-16T12:08:13.654Z,1004.22
2022-10-16T12:09:13.610Z,1004.31
2022-10-16T12:10:13.676Z,1004.33
2022-10-16T12:11:13.593Z,1004.24
2022-10-16T12:12:13.656Z,1004.25
2022-10-16T12:13:13.580Z,1004.28